Time;durP1;ratioP1;P1;durP2;ratioP2;P2;SDS_P1;SDS_P2;PMS_P1;PMS_P2;Temp;Humidity;BMP_temperature;BMP_pressure;BME280_temperature;BME280_humidity;BME280_pressure;Samples;Min_cycle;Max_cycle;Signal;HPM_P1;HPM_P2
2021/11/13 00:00:26;;;;;;;23.23;17.65;;;;;;;;;;5036338;28;20254;-62
2021/11/13 00:02:53;;;;;;;26.65;19.58;;;;;;;;;;5035785;28;20223;-61
2021/11/13 00:05:21;;;;;;;23.50;19.30;;;;;;;;;;5035952;28;20204;-62
2021/11/13 00:07:48;;;;;;;22.83;18.63;;;;;;;;;;5036203;28;20211;-62
2021/11/13 00:10:17;;;;;;;25.02;18.67;;;;;;;;;;5038586;28;20212;-61
2021/11/13 00:12:46;;;;;;;23.15;17.52;;;;;;;;;;5036600;28;20211;-62
2021/11/13 00:15:18;;;;;;;22.65;18.02;;;;;;;;;;5036190;28;20212;-61
2021/11/13 00:17:45;;;;;;;25.13;18.75;;;;;;;;;;5037183;28;20301;-62
2021/11/13 00:20:13;;;;;;;24.05;17.67;;;;;;;;;;5038431;28;20215;-62
2021/11/13 00:22:40;;;;;;;28.33;18.25;;;;;;;;;;5036865;28;20702;-62
2021/11/13 00:25:08;;;;;;;24.52;16.98;;;;;;;;;;5037538;28;20671;-61
2021/11/13 00:27:35;;;;;;;26.58;19.42;;;;;;;;;;5042096;28;20232;-61
2021/11/13 00:30:04;;;;;;;26.08;18.90;;;;;;;;;;5043726;28;20217;-61
2021/11/13 00:32:32;;;;;;;22.65;18.17;;;;;;;;;;5044129;28;20200;-63
2021/11/13 00:34:59;;;;;;;25.58;19.55;;;;;;;;;;5044713;28;20208;-61
2021/11/13 00:37:26;;;;;;;23.40;18.10;;;;;;;;;;5038561;28;20219;-62
2021/11/13 00:39:53;;;;;;;22.35;17.38;;;;;;;;;;5036556;28;20212;-62
2021/11/13 00:42:21;;;;;;;20.80;17.40;;;;;;;;;;5036386;28;20211;-62
2021/11/13 00:44:49;;;;;;;22.98;17.83;;;;;;;;;;5036597;28;20201;-61
2021/11/13 00:47:17;;;;;;;25.05;17.27;;;;;;;;;;5036782;28;20639;-62
2021/11/13 00:49:45;;;;;;;22.30;16.25;;;;;;;;;;5035809;28;20214;-62
2021/11/13 00:52:13;;;;;;;22.40;16.25;;;;;;;;;;5035710;28;20549;-61
2021/11/13 00:54:40;;;;;;;20.20;17.48;;;;;;;;;;5035159;28;20201;-61
2021/11/13 00:57:08;;;;;;;20.80;15.98;;;;;;;;;;5035306;28;20707;-61
2021/11/13 00:59:36;;;;;;;22.80;17.25;;;;;;;;;;5035382;28;20232;-61
2021/11/13 01:02:03;;;;;;;21.35;16.73;;;;;;;;;;5035653;28;20215;-62
2021/11/13 01:04:32;;;;;;;18.80;15.32;;;;;;;;;;5034933;28;20207;-63
2021/11/13 01:06:59;;;;;;;19.60;15.45;;;;;;;;;;5034747;28;20221;-62
2021/11/13 01:09:27;;;;;;;22.27;15.65;;;;;;;;;;5034728;28;20211;-61
2021/11/13 01:11:55;;;;;;;20.50;16.83;;;;;;;;;;5034635;28;20553;-62
2021/11/13 01:14:22;;;;;;;22.08;15.45;;;;;;;;;;5034415;28;20230;-62
2021/11/13 01:16:50;;;;;;;21.90;16.70;;;;;;;;;;5034814;28;20245;-61
2021/11/13 01:19:17;;;;;;;22.08;16.77;;;;;;;;;;5045504;28;20220;-61
2021/11/13 01:21:46;;;;;;;20.90;16.05;;;;;;;;;;5044237;28;20212;-61
2021/11/13 01:24:13;;;;;;;19.85;15.00;;;;;;;;;;5042740;28;20213;-61
2021/11/13 01:26:41;;;;;;;20.67;16.05;;;;;;;;;;5040482;28;20251;-61
2021/11/13 01:29:08;;;;;;;23.80;15.95;;;;;;;;;;5034256;28;20216;-61
2021/11/13 01:31:35;;;;;;;20.25;15.40;;;;;;;;;;5034391;28;20204;-62
2021/11/13 01:34:02;;;;;;;20.00;15.40;;;;;;;;;;5033858;28;20215;-62
2021/11/13 01:36:30;;;;;;;19.02;14.32;;;;;;;;;;5033861;28;20725;-61
2021/11/13 01:38:59;;;;;;;20.20;15.00;;;;;;;;;;5034054;28;20205;-61
2021/11/13 01:41:26;;;;;;;18.13;14.48;;;;;;;;;;5034285;28;20204;-62
2021/11/13 01:43:55;;;;;;;16.50;13.18;;;;;;;;;;5034075;28;20215;-62
2021/11/13 01:46:22;;;;;;;16.10;12.80;;;;;;;;;;5033682;28;20220;-62
2021/11/13 01:48:50;;;;;;;19.15;14.48;;;;;;;;;;5042492;28;20204;-62
2021/11/13 01:51:19;;;;;;;18.40;13.60;;;;;;;;;;5034428;28;20209;-60
2021/11/13 01:53:47;;;;;;;18.80;12.80;;;;;;;;;;5034213;28;20208;-62
2021/11/13 01:56:19;;;;;;;17.08;13.68;;;;;;;;;;5034847;28;20231;-61
2021/11/13 01:58:47;;;;;;;16.20;12.57;;;;;;;;;;5038502;28;20196;-61
2021/11/13 02:01:14;;;;;;;16.85;13.25;;;;;;;;;;5037752;28;20204;-61
2021/11/13 02:03:41;;;;;;;16.95;12.68;;;;;;;;;;5034530;28;20606;-61
2021/11/13 02:06:09;;;;;;;14.25;12.00;;;;;;;;;;5033866;28;20720;-62
2021/11/13 02:08:36;;;;;;;15.07;11.65;;;;;;;;;;5033894;28;20204;-61
2021/11/13 02:11:04;;;;;;;13.50;11.98;;;;;;;;;;5033871;28;20212;-61
2021/11/13 02:13:32;;;;;;;14.70;12.95;;;;;;;;;;5044834;28;20204;-61
2021/11/13 02:16:00;;;;;;;13.80;10.52;;;;;;;;;;5035108;28;20235;-62
2021/11/13 02:18:27;;;;;;;16.05;12.05;;;;;;;;;;5034366;28;20207;-61
2021/11/13 02:20:56;;;;;;;14.93;12.45;;;;;;;;;;5033452;28;20611;-61
2021/11/13 02:23:24;;;;;;;14.70;11.18;;;;;;;;;;5034318;28;20229;-62
2021/11/13 02:25:53;;;;;;;12.68;10.98;;;;;;;;;;5033479;28;20727;-62
2021/11/13 02:28:21;;;;;;;12.68;11.10;;;;;;;;;;5033527;28;20225;-61
2021/11/13 02:30:49;;;;;;;13.38;10.75;;;;;;;;;;5033234;28;20211;-62
2021/11/13 02:33:17;;;;;;;13.13;11.00;;;;;;;;;;5033587;28;20592;-61
2021/11/13 02:35:44;;;;;;;12.60;10.85;;;;;;;;;;5033318;28;20742;-62
2021/11/13 02:38:15;;;;;;;14.23;11.63;;;;;;;;;;5033578;28;20208;-62
2021/11/13 02:40:43;;;;;;;12.70;9.95;;;;;;;;;;5033624;28;20193;-61
2021/11/13 02:43:11;;;;;;;15.52;11.07;;;;;;;;;;5033754;28;20214;-61
2021/11/13 02:45:38;;;;;;;11.57;9.75;;;;;;;;;;5033513;28;20219;-61
2021/11/13 02:48:07;;;;;;;12.15;10.85;;;;;;;;;;5036990;28;20703;-62
2021/11/13 02:50:35;;;;;;;12.85;10.75;;;;;;;;;;5037961;28;20231;-62
2021/11/13 02:53:03;;;;;;;13.02;10.93;;;;;;;;;;5038931;28;20257;-62
2021/11/13 02:55:32;;;;;;;16.75;12.25;;;;;;;;;;5038572;28;20236;-62
2021/11/13 02:57:59;;;;;;;13.57;12.18;;;;;;;;;;5038837;28;20205;-62
2021/11/13 03:00:28;;;;;;;15.15;12.25;;;;;;;;;;5037842;28;20211;-62
2021/11/13 03:02:56;;;;;;;15.18;13.10;;;;;;;;;;5037429;28;20695;-62
2021/11/13 03:05:25;;;;;;;14.77;12.15;;;;;;;;;;5037092;28;20201;-62
2021/11/13 03:07:53;;;;;;;15.07;11.57;;;;;;;;;;5037178;28;20711;-62
2021/11/13 03:10:20;;;;;;;16.33;11.35;;;;;;;;;;5037944;28;20205;-62
2021/11/13 03:12:49;;;;;;;17.63;14.00;;;;;;;;;;5038386;28;20208;-62
2021/11/13 03:15:18;;;;;;;15.50;13.25;;;;;;;;;;5037870;28;20204;-61
2021/11/13 03:17:45;;;;;;;14.05;12.00;;;;;;;;;;5039469;28;20202;-62
2021/11/13 03:20:14;;;;;;;13.23;11.02;;;;;;;;;;5038082;28;20295;-62
2021/11/13 03:22:42;;;;;;;16.00;13.38;;;;;;;;;;5038245;28;20199;-62
2021/11/13 03:25:10;;;;;;;16.60;12.98;;;;;;;;;;5046661;28;20212;-62
2021/11/13 03:27:38;;;;;;;16.23;11.55;;;;;;;;;;5049885;28;20220;-62
2021/11/13 03:30:08;;;;;;;15.05;12.23;;;;;;;;;;5048527;28;20201;-62
2021/11/13 03:32:36;;;;;;;17.02;12.30;;;;;;;;;;5044851;28;20205;-62
2021/11/13 03:35:04;;;;;;;14.75;11.48;;;;;;;;;;5037963;28;20212;-62
2021/11/13 03:37:31;;;;;;;16.08;12.82;;;;;;;;;;5037780;28;20224;-62
2021/11/13 03:39:58;;;;;;;14.43;12.30;;;;;;;;;;5038777;28;20212;-62
2021/11/13 03:42:29;;;;;;;13.27;11.82;;;;;;;;;;5038432;28;20215;-62
2021/11/13 03:44:57;;;;;;;16.67;12.73;;;;;;;;;;5041616;28;20280;-63
2021/11/13 03:47:26;;;;;;;15.60;12.43;;;;;;;;;;5047778;28;20231;-62
2021/11/13 03:49:53;;;;;;;12.32;11.02;;;;;;;;;;5047456;28;20207;-62
2021/11/13 03:52:20;;;;;;;12.85;11.55;;;;;;;;;;5047335;28;20563;-62
2021/11/13 03:54:48;;;;;;;14.48;11.82;;;;;;;;;;5048860;28;20212;-63
2021/11/13 03:57:15;;;;;;;13.80;11.88;;;;;;;;;;5048595;28;20220;-62
2021/11/13 03:59:42;;;;;;;15.55;12.55;;;;;;;;;;5043351;28;20253;-62
2021/11/13 04:02:11;;;;;;;14.05;12.00;;;;;;;;;;5044264;28;20216;-62
2021/11/13 04:04:40;;;;;;;16.05;13.15;;;;;;;;;;5043541;28;20200;-62
2021/11/13 04:08:52;;;;;;;15.65;12.18;;;;;;;;;;5117589;27;20547;-62
2021/11/13 04:11:19;;;;;;;14.38;11.77;;;;;;;;;;5117703;28;20203;-62
2021/11/13 04:13:46;;;;;;;17.92;13.27;;;;;;;;;;5117541;28;20222;-62
2021/11/13 04:16:14;;;;;;;17.33;13.80;;;;;;;;;;5117668;28;20220;-61
2021/11/13 04:18:41;;;;;;;18.58;12.35;;;;;;;;;;5117786;28;20207;-61
2021/11/13 04:21:09;;;;;;;16.75;13.75;;;;;;;;;;5115504;22;20239;-57
2021/11/13 04:23:37;;;;;;;18.35;13.85;;;;;;;;;;5050475;28;20575;-57
2021/11/13 04:26:06;;;;;;;15.38;13.18;;;;;;;;;;5050957;28;20214;-58
2021/11/13 04:28:33;;;;;;;18.55;14.32;;;;;;;;;;5049992;28;20229;-57
2021/11/13 04:31:00;;;;;;;15.10;12.95;;;;;;;;;;5050196;28;20230;-58
2021/11/13 04:33:29;;;;;;;15.63;12.85;;;;;;;;;;5050847;28;20201;-57
2021/11/13 04:36:07;;;;;;;15.93;13.02;;;;;;;;;;5050347;28;20198;-57
2021/11/13 04:38:35;;;;;;;18.55;12.93;;;;;;;;;;5049935;28;20183;-57
2021/11/13 04:41:03;;;;;;;19.05;13.52;;;;;;;;;;5049868;28;20235;-57
2021/11/13 04:43:32;;;;;;;17.08;12.40;;;;;;;;;;5049731;28;20198;-57
2021/11/13 04:45:59;;;;;;;14.88;10.75;;;;;;;;;;5049794;28;20604;-57
2021/11/13 04:48:26;;;;;;;16.48;13.60;;;;;;;;;;5049951;28;20222;-57
2021/11/13 04:50:57;;;;;;;17.35;14.02;;;;;;;;;;5049656;28;20599;-57
2021/11/13 04:53:24;;;;;;;17.60;12.15;;;;;;;;;;5050061;28;20263;-57
2021/11/13 04:55:51;;;;;;;14.73;11.50;;;;;;;;;;5050114;28;20198;-57
2021/11/13 04:58:19;;;;;;;14.63;11.13;;;;;;;;;;5049742;28;20686;-57
2021/11/13 05:00:47;;;;;;;18.05;13.02;;;;;;;;;;5049428;28;20217;-56
2021/11/13 05:03:15;;;;;;;16.63;12.27;;;;;;;;;;5049512;28;20205;-57
2021/11/13 05:05:42;;;;;;;14.82;12.23;;;;;;;;;;5050211;28;20202;-57
2021/11/13 05:08:10;;;;;;;14.57;12.50;;;;;;;;;;5049448;28;20217;-57
2021/11/13 05:10:37;;;;;;;14.80;11.70;;;;;;;;;;5049617;28;20221;-57
2021/11/13 05:13:04;;;;;;;16.38;13.38;;;;;;;;;;5049355;28;20204;-57
2021/11/13 05:15:31;;;;;;;15.20;11.45;;;;;;;;;;5049854;28;20555;-57
2021/11/13 05:18:00;;;;;;;14.23;11.70;;;;;;;;;;5049194;28;20205;-57
2021/11/13 05:20:27;;;;;;;14.93;11.70;;;;;;;;;;5035889;28;20217;-57
2021/11/13 05:22:55;;;;;;;16.20;12.48;;;;;;;;;;5036516;28;20193;-56
2021/11/13 05:25:23;;;;;;;16.77;11.73;;;;;;;;;;5035770;28;20209;-57
2021/11/13 05:27:51;;;;;;;13.60;11.20;;;;;;;;;;5035779;28;20221;-57
2021/11/13 05:30:19;;;;;;;15.20;11.85;;;;;;;;;;5036016;28;20631;-57
2021/11/13 05:32:46;;;;;;;13.18;11.77;;;;;;;;;;5035691;28;20549;-56
2021/11/13 05:35:16;;;;;;;13.07;11.52;;;;;;;;;;5035705;28;20220;-57
2021/11/13 05:37:44;;;;;;;14.45;11.18;;;;;;;;;;5035556;28;20202;-57
2021/11/13 05:40:12;;;;;;;17.17;11.60;;;;;;;;;;5036014;28;20206;-57
2021/11/13 05:42:40;;;;;;;12.10;10.80;;;;;;;;;;5035591;28;20671;-56
2021/11/13 05:45:08;;;;;;;12.77;10.57;;;;;;;;;;5035609;28;20204;-57
2021/11/13 05:47:35;;;;;;;14.90;11.65;;;;;;;;;;5035700;28;20215;-57
2021/11/13 05:50:03;;;;;;;15.50;13.07;;;;;;;;;;5035794;28;20202;-57
2021/11/13 05:52:31;;;;;;;14.13;11.60;;;;;;;;;;5035625;28;20720;-57
2021/11/13 05:54:59;;;;;;;16.05;12.48;;;;;;;;;;5035277;28;20697;-57
2021/11/13 05:57:26;;;;;;;15.82;12.15;;;;;;;;;;5035508;28;20199;-57
2021/11/13 05:59:53;;;;;;;13.88;11.23;;;;;;;;;;5035557;28;20210;-57
2021/11/13 06:02:21;;;;;;;13.32;11.43;;;;;;;;;;5035420;28;20616;-57
2021/11/13 06:04:48;;;;;;;13.00;10.65;;;;;;;;;;5035306;28;20206;-57
2021/11/13 06:07:15;;;;;;;16.52;12.05;;;;;;;;;;5035263;28;20213;-57
2021/11/13 06:09:44;;;;;;;13.82;10.45;;;;;;;;;;5034941;28;20205;-57
2021/11/13 06:12:11;;;;;;;12.32;11.05;;;;;;;;;;5034992;28;20625;-56
2021/11/13 06:14:39;;;;;;;14.52;11.82;;;;;;;;;;5035202;28;20683;-57
2021/11/13 06:17:06;;;;;;;15.75;12.13;;;;;;;;;;5035184;28;20217;-57
2021/11/13 06:19:33;;;;;;;13.75;11.77;;;;;;;;;;5035028;28;20210;-57
2021/11/13 06:22:00;;;;;;;14.80;12.27;;;;;;;;;;5034798;28;20238;-57
2021/11/13 06:24:28;;;;;;;14.43;12.75;;;;;;;;;;5034974;28;20202;-57
2021/11/13 06:26:57;;;;;;;14.43;11.18;;;;;;;;;;5034938;28;20206;-56
2021/11/13 06:29:24;;;;;;;17.23;12.75;;;;;;;;;;5034468;28;20229;-57
2021/11/13 06:31:51;;;;;;;15.98;12.65;;;;;;;;;;5033788;28;20229;-56
2021/11/13 06:34:19;;;;;;;17.17;13.05;;;;;;;;;;5034463;28;20199;-56
2021/11/13 06:36:46;;;;;;;17.40;12.50;;;;;;;;;;5034613;28;20206;-56
2021/11/13 06:39:13;;;;;;;17.02;12.55;;;;;;;;;;5034686;28;20206;-56
2021/11/13 06:41:41;;;;;;;15.75;12.35;;;;;;;;;;5034260;28;20233;-57
2021/11/13 06:44:09;;;;;;;19.05;14.32;;;;;;;;;;5034666;28;20210;-56
2021/11/13 06:46:37;;;;;;;14.98;12.80;;;;;;;;;;5034546;28;20202;-56
2021/11/13 06:49:04;;;;;;;19.80;13.25;;;;;;;;;;5034140;28;20217;-56
2021/11/13 06:51:31;;;;;;;18.98;15.00;;;;;;;;;;5034406;28;20223;-56
2021/11/13 06:53:59;;;;;;;18.95;12.65;;;;;;;;;;5034313;28;20205;-56
2021/11/13 06:56:26;;;;;;;20.85;15.40;;;;;;;;;;5034046;28;20730;-56
2021/11/13 06:58:54;;;;;;;18.42;14.50;;;;;;;;;;5034013;28;20201;-56
2021/11/13 07:01:23;;;;;;;16.90;14.10;;;;;;;;;;5033879;28;20736;-56
2021/11/13 07:03:50;;;;;;;17.67;13.75;;;;;;;;;;5034181;28;20202;-57
2021/11/13 07:06:17;;;;;;;17.13;13.13;;;;;;;;;;5033803;28;20221;-57
2021/11/13 07:08:44;;;;;;;20.88;15.27;;;;;;;;;;5033696;28;20721;-56
2021/11/13 07:11:12;;;;;;;19.33;14.73;;;;;;;;;;5033931;28;20222;-57
2021/11/13 07:13:39;;;;;;;19.52;14.52;;;;;;;;;;5033787;28;20202;-57
2021/11/13 07:16:08;;;;;;;18.25;14.20;;;;;;;;;;5033765;28;20198;-57
2021/11/13 07:18:37;;;;;;;18.67;13.63;;;;;;;;;;5033987;28;20209;-57
2021/11/13 07:21:05;;;;;;;15.68;13.05;;;;;;;;;;5033593;28;20234;-57
2021/11/13 07:23:32;;;;;;;18.75;14.57;;;;;;;;;;5033485;28;20209;-57
2021/11/13 07:26:00;;;;;;;23.75;15.15;;;;;;;;;;5033650;28;20206;-56
2021/11/13 07:28:36;;;;;;;16.45;13.70;;;;;;;;;;5033374;28;20237;-57
2021/11/13 07:31:03;;;;;;;18.50;15.00;;;;;;;;;;5033709;28;20222;-57
2021/11/13 07:33:31;;;;;;;18.38;13.68;;;;;;;;;;5033477;28;20205;-57
2021/11/13 07:35:59;;;;;;;20.55;15.20;;;;;;;;;;5033322;28;20220;-56
2021/11/13 07:38:27;;;;;;;17.42;14.07;;;;;;;;;;5033722;28;20205;-56
2021/11/13 07:40:54;;;;;;;19.88;14.80;;;;;;;;;;5033479;28;20272;-56
2021/11/13 07:43:21;;;;;;;18.80;14.02;;;;;;;;;;5033279;28;20213;-56
2021/11/13 07:45:49;;;;;;;18.25;14.40;;;;;;;;;;5033538;28;20202;-56
2021/11/13 07:48:16;;;;;;;18.48;13.95;;;;;;;;;;5033087;28;20214;-56
2021/11/13 07:50:43;;;;;;;19.90;14.30;;;;;;;;;;5033390;28;20596;-56
2021/11/13 07:53:12;;;;;;;18.33;13.60;;;;;;;;;;5033614;28;20213;-56
2021/11/13 07:55:40;;;;;;;18.90;14.10;;;;;;;;;;5033286;28;20726;-56
2021/11/13 07:58:08;;;;;;;19.92;15.02;;;;;;;;;;5033284;28;20198;-56
2021/11/13 08:00:35;;;;;;;20.75;15.00;;;;;;;;;;5033058;28;20219;-56
2021/11/13 08:03:03;;;;;;;19.92;14.65;;;;;;;;;;5033228;28;20225;-56
2021/11/13 08:05:30;;;;;;;18.27;14.00;;;;;;;;;;5032898;28;20681;-56
2021/11/13 08:07:57;;;;;;;17.27;14.57;;;;;;;;;;5033178;28;20234;-56
2021/11/13 08:10:26;;;;;;;20.05;14.60;;;;;;;;;;5033247;28;20210;-56
2021/11/13 08:12:54;;;;;;;20.77;16.42;;;;;;;;;;5033235;28;20203;-56
2021/11/13 08:15:21;;;;;;;19.73;15.27;;;;;;;;;;5032998;28;20202;-56
2021/11/13 08:17:49;;;;;;;18.70;14.50;;;;;;;;;;5032858;28;20214;-56
2021/11/13 08:20:16;;;;;;;18.92;15.25;;;;;;;;;;5032950;28;20205;-56
2021/11/13 08:22:44;;;;;;;20.77;14.60;;;;;;;;;;5032844;28;20202;-56
2021/11/13 08:25:13;;;;;;;18.63;14.50;;;;;;;;;;5032953;28;20206;-56
2021/11/13 08:27:43;;;;;;;17.80;14.40;;;;;;;;;;5032999;28;20210;-56
2021/11/13 08:30:10;;;;;;;18.50;14.18;;;;;;;;;;5032591;28;20223;-56
2021/11/13 08:32:38;;;;;;;17.90;13.63;;;;;;;;;;5033032;28;20202;-56
2021/11/13 08:35:06;;;;;;;19.52;14.20;;;;;;;;;;5032811;28;20198;-55
2021/11/13 08:37:33;;;;;;;18.02;14.70;;;;;;;;;;5032601;28;20670;-55
2021/11/13 08:40:01;;;;;;;17.27;13.65;;;;;;;;;;5032844;28;20198;-55
2021/11/13 08:42:28;;;;;;;15.55;12.82;;;;;;;;;;5032662;28;20597;-55
2021/11/13 08:44:57;;;;;;;16.45;13.23;;;;;;;;;;5032775;28;20210;-57
2021/11/13 08:47:24;;;;;;;16.02;14.32;;;;;;;;;;5032495;28;20702;-56
2021/11/13 08:49:52;;;;;;;17.67;13.35;;;;;;;;;;5032427;28;20219;-57
2021/11/13 08:52:20;;;;;;;18.38;13.68;;;;;;;;;;5032510;28;20257;-58
2021/11/13 08:54:48;;;;;;;15.90;12.25;;;;;;;;;;5034813;28;20213;-56
2021/11/13 08:57:16;;;;;;;16.85;13.00;;;;;;;;;;5036376;28;20207;-56
2021/11/13 08:59:43;;;;;;;18.42;13.07;;;;;;;;;;5036096;28;20199;-57
2021/11/13 09:02:14;;;;;;;15.07;12.68;;;;;;;;;;5036358;28;20223;-57
2021/11/13 09:04:43;;;;;;;14.70;12.85;;;;;;;;;;5036372;28;20187;-57
2021/11/13 09:07:10;;;;;;;18.85;13.73;;;;;;;;;;5035932;28;20214;-56
2021/11/13 09:09:39;;;;;;;16.05;13.32;;;;;;;;;;5036120;28;20218;-56
2021/11/13 09:12:08;;;;;;;15.32;12.15;;;;;;;;;;5035858;28;20222;-56
2021/11/13 09:14:36;;;;;;;19.20;13.60;;;;;;;;;;5036172;28;20213;-56
2021/11/13 09:17:04;;;;;;;13.85;11.63;;;;;;;;;;5036693;28;20210;-57
2021/11/13 09:19:32;;;;;;;15.90;11.90;;;;;;;;;;5035600;28;20202;-57
2021/11/13 09:22:00;;;;;;;15.77;12.15;;;;;;;;;;5035400;28;20250;-56
2021/11/13 09:24:27;;;;;;;13.95;11.55;;;;;;;;;;5035963;28;20229;-57
2021/11/13 09:26:55;;;;;;;18.52;12.02;;;;;;;;;;5035591;28;20203;-56
2021/11/13 09:29:22;;;;;;;15.35;12.43;;;;;;;;;;5035857;28;20303;-56
2021/11/13 09:31:49;;;;;;;14.38;11.55;;;;;;;;;;5035934;28;20237;-56
2021/11/13 09:34:18;;;;;;;15.18;11.75;;;;;;;;;;5036209;28;20206;-58
2021/11/13 09:36:47;;;;;;;13.90;10.20;;;;;;;;;;5035697;28;20532;-56
2021/11/13 09:39:15;;;;;;;15.40;11.95;;;;;;;;;;5035473;28;20705;-57
2021/11/13 09:41:42;;;;;;;13.88;11.02;;;;;;;;;;5035829;28;20222;-56
2021/11/13 09:44:10;;;;;;;15.02;11.02;;;;;;;;;;5036478;28;20555;-58
2021/11/13 09:46:38;;;;;;;13.68;11.52;;;;;;;;;;5035805;28;20202;-56
2021/11/13 09:49:06;;;;;;;16.15;11.02;;;;;;;;;;5036671;28;20561;-56
2021/11/13 09:51:33;;;;;;;12.70;11.25;;;;;;;;;;5035795;28;20226;-55
2021/11/13 09:54:02;;;;;;;14.35;12.10;;;;;;;;;;5035530;28;20214;-56
2021/11/13 09:56:30;;;;;;;15.05;12.05;;;;;;;;;;5035251;28;20200;-56
2021/11/13 09:58:58;;;;;;;14.18;12.02;;;;;;;;;;5035493;28;20198;-56
2021/11/13 10:01:26;;;;;;;16.17;12.18;;;;;;;;;;5035095;28;20297;-56
2021/11/13 10:03:53;;;;;;;15.85;11.27;;;;;;;;;;5035551;28;20203;-56
2021/11/13 10:06:20;;;;;;;14.55;10.88;;;;;;;;;;5034938;28;20203;-57
2021/11/13 10:08:50;;;;;;;15.73;11.48;;;;;;;;;;5034950;28;20231;-57
2021/11/13 10:11:19;;;;;;;11.57;10.32;;;;;;;;;;5035473;28;20218;-57
2021/11/13 10:13:50;;;;;;;12.93;11.07;;;;;;;;;;5035366;28;20645;-57
2021/11/13 10:16:19;;;;;;;13.35;9.75;;;;;;;;;;5034972;28;20194;-57
2021/11/13 10:18:47;;;;;;;15.68;11.35;;;;;;;;;;5034703;28;20663;-57
2021/11/13 10:21:17;;;;;;;13.13;10.85;;;;;;;;;;5034862;28;20242;-57
2021/11/13 10:23:46;;;;;;;12.95;10.15;;;;;;;;;;5035253;28;20262;-57
2021/11/13 10:26:15;;;;;;;13.10;10.43;;;;;;;;;;5069172;22;20232;-61
2021/11/13 10:28:45;;;;;;;13.90;10.75;;;;;;;;;;5035915;28;20206;-61
2021/11/13 10:31:14;;;;;;;14.07;10.85;;;;;;;;;;5036009;28;20639;-61
2021/11/13 10:33:42;;;;;;;11.98;10.35;;;;;;;;;;5035649;28;20208;-61
2021/11/13 10:36:10;;;;;;;13.02;10.43;;;;;;;;;;5036066;28;20219;-61
2021/11/13 10:38:38;;;;;;;13.18;11.77;;;;;;;;;;5035741;28;20199;-61
2021/11/13 10:41:06;;;;;;;11.77;10.43;;;;;;;;;;5035753;28;20680;-62
2021/11/13 10:43:34;;;;;;;12.35;10.10;;;;;;;;;;5036691;28;20200;-61
2021/11/13 10:46:04;;;;;;;13.55;11.30;;;;;;;;;;5036490;28;20231;-62
2021/11/13 10:48:32;;;;;;;16.10;11.25;;;;;;;;;;5035996;28;20640;-60
2021/11/13 10:51:04;;;;;;;12.48;10.63;;;;;;;;;;5036363;28;20554;-60
2021/11/13 10:53:32;;;;;;;13.00;11.30;;;;;;;;;;5036622;28;20203;-61
2021/11/13 10:56:11;;;;;;;13.52;11.27;;;;;;;;;;5037018;28;20231;-62
2021/11/13 10:58:40;;;;;;;12.80;10.68;;;;;;;;;;5036455;28;20187;-61
2021/11/13 11:01:10;;;;;;;14.27;10.77;;;;;;;;;;5035220;28;20266;-59
2021/11/13 11:03:38;;;;;;;12.68;10.82;;;;;;;;;;5035029;28;20199;-60
2021/11/13 11:06:06;;;;;;;12.82;10.70;;;;;;;;;;5034418;28;20234;-61
2021/11/13 11:08:34;;;;;;;12.10;9.73;;;;;;;;;;5034588;28;20203;-61
2021/11/13 11:11:02;;;;;;;12.73;10.32;;;;;;;;;;5034365;28;20538;-61
2021/11/13 11:13:48;;;;;;;10.68;9.65;;;;;;;;;;5034312;28;20679;-61
2021/11/13 11:16:28;;;;;;;12.10;10.77;;;;;;;;;;5034329;28;20245;-59
2021/11/13 11:18:59;;;;;;;11.70;10.10;;;;;;;;;;5035768;28;20215;-61
2021/11/13 11:21:40;;;;;;;14.43;11.27;;;;;;;;;;5035105;28;20207;-61
2021/11/13 11:24:12;;;;;;;15.13;10.80;;;;;;;;;;5037112;28;20215;-61
2021/11/13 11:26:39;;;;;;;12.45;10.20;;;;;;;;;;5034869;28;20237;-61
2021/11/13 11:29:06;;;;;;;12.88;10.45;;;;;;;;;;5035788;28;20589;-60
2021/11/13 11:31:45;;;;;;;13.80;10.93;;;;;;;;;;5035310;28;20253;-61
2021/11/13 11:34:20;;;;;;;12.60;9.90;;;;;;;;;;5034601;28;20195;-61
2021/11/13 11:36:47;;;;;;;13.73;10.77;;;;;;;;;;5035869;28;20229;-61
2021/11/13 11:39:15;;;;;;;11.30;9.65;;;;;;;;;;5035680;28;20647;-61
2021/11/13 11:41:42;;;;;;;13.32;10.05;;;;;;;;;;5034841;28;20206;-59
2021/11/13 11:44:10;;;;;;;13.27;10.07;;;;;;;;;;5035217;28;20211;-61
2021/11/13 11:46:37;;;;;;;11.60;10.40;;;;;;;;;;5036160;28;20231;-61
2021/11/13 11:49:06;;;;;;;13.60;10.07;;;;;;;;;;5034749;28;20210;-61
2021/11/13 11:51:33;;;;;;;10.90;9.52;;;;;;;;;;5034553;28;20200;-62
2021/11/13 11:54:01;;;;;;;12.23;9.85;;;;;;;;;;5034145;28;20205;-60
2021/11/13 11:56:28;;;;;;;12.70;10.48;;;;;;;;;;5034169;28;20225;-60
2021/11/13 11:58:56;;;;;;;11.07;9.57;;;;;;;;;;5035801;28;20225;-61
2021/11/13 12:01:27;;;;;;;11.07;9.75;;;;;;;;;;5035275;28;20214;-62
2021/11/13 12:04:09;;;;;;;12.00;9.63;;;;;;;;;;5034926;28;20203;-61
2021/11/13 12:06:41;;;;;;;13.27;11.07;;;;;;;;;;5034814;28;20272;-61
2021/11/13 12:09:08;;;;;;;16.42;11.15;;;;;;;;;;5036496;28;20214;-61
2021/11/13 12:11:36;;;;;;;12.98;11.43;;;;;;;;;;5041235;28;20217;-62
2021/11/13 12:14:23;;;;;;;13.52;11.23;;;;;;;;;;5035046;28;20303;-60
2021/11/13 12:16:51;;;;;;;14.70;11.77;;;;;;;;;;5034599;28;20227;-62
2021/11/13 12:19:19;;;;;;;15.18;11.85;;;;;;;;;;5036176;28;20199;-62
2021/11/13 12:21:54;;;;;;;13.25;11.50;;;;;;;;;;5039228;28;20203;-61
2021/11/13 12:24:21;;;;;;;15.25;10.68;;;;;;;;;;5041517;28;20205;-61
2021/11/13 12:27:01;;;;;;;14.20;11.25;;;;;;;;;;5041936;28;20227;-61
2021/11/13 12:29:30;;;;;;;14.48;11.45;;;;;;;;;;5042972;28;20268;-61
2021/11/13 12:31:58;;;;;;;12.82;11.30;;;;;;;;;;5044874;28;20206;-61
2021/11/13 12:34:34;;;;;;;14.88;11.65;;;;;;;;;;5044468;28;20253;-61
2021/11/13 12:37:03;;;;;;;14.57;11.95;;;;;;;;;;5044635;28;20221;-61
2021/11/13 12:39:32;;;;;;;13.10;11.15;;;;;;;;;;5044989;28;20205;-61
2021/11/13 12:42:04;;;;;;;13.35;11.48;;;;;;;;;;5045929;28;20199;-62
2021/11/13 12:44:36;;;;;;;15.35;12.45;;;;;;;;;;5046322;28;20236;-61
2021/11/13 12:47:08;;;;;;;15.07;12.55;;;;;;;;;;5048815;28;20229;-63
2021/11/13 12:49:44;;;;;;;15.52;11.88;;;;;;;;;;5050378;28;20248;-61
2021/11/13 12:52:16;;;;;;;16.33;11.90;;;;;;;;;;5046967;28;20201;-61
2021/11/13 12:54:56;;;;;;;16.52;12.20;;;;;;;;;;5046114;28;20591;-60
2021/11/13 12:57:26;;;;;;;15.77;12.70;;;;;;;;;;5043778;28;20233;-63
2021/11/13 12:59:55;;;;;;;15.82;13.13;;;;;;;;;;5043569;28;20203;-64
2021/11/13 13:02:23;;;;;;;13.27;11.02;;;;;;;;;;5044026;28;20203;-61
2021/11/13 13:04:52;;;;;;;13.05;11.32;;;;;;;;;;5042961;28;20214;-62
2021/11/13 13:07:20;;;;;;;13.05;11.20;;;;;;;;;;5041159;28;20222;-61
2021/11/13 13:09:51;;;;;;;14.82;11.65;;;;;;;;;;5038291;28;20226;-60
2021/11/13 13:12:19;;;;;;;15.50;11.00;;;;;;;;;;5038055;28;20215;-62
2021/11/13 13:14:47;;;;;;;13.68;11.52;;;;;;;;;;5038725;28;20202;-63
2021/11/13 13:17:21;;;;;;;12.00;10.80;;;;;;;;;;5045008;28;20225;-62
2021/11/13 13:19:49;;;;;;;13.00;11.25;;;;;;;;;;5042242;28;20187;-62
2021/11/13 13:22:18;;;;;;;13.13;10.88;;;;;;;;;;5042578;28;20596;-62
2021/11/13 13:24:49;;;;;;;12.48;10.30;;;;;;;;;;5043661;28;20261;-61
2021/11/13 13:27:17;;;;;;;11.50;10.30;;;;;;;;;;5042693;28;20235;-61
2021/11/13 13:29:46;;;;;;;16.17;9.35;;;;;;;;;;5037546;28;20703;-62
2021/11/13 13:32:15;;;;;;;15.70;11.23;;;;;;;;;;5038385;28;20203;-63
2021/11/13 13:34:50;;;;;;;14.18;10.55;;;;;;;;;;5038339;28;20211;-60
2021/11/13 13:37:20;;;;;;;12.25;10.68;;;;;;;;;;5037552;28;20726;-62
2021/11/13 13:39:48;;;;;;;14.43;11.13;;;;;;;;;;5037557;28;20246;-61
2021/11/13 13:42:16;;;;;;;11.10;9.60;;;;;;;;;;5037927;28;20206;-62
2021/11/13 13:44:43;;;;;;;12.15;9.70;;;;;;;;;;5037336;28;20211;-62
2021/11/13 13:47:10;;;;;;;12.02;10.27;;;;;;;;;;5037196;28;20243;-62
2021/11/13 13:49:38;;;;;;;11.27;9.07;;;;;;;;;;5037930;28;20207;-62
2021/11/13 13:52:08;;;;;;;11.32;10.13;;;;;;;;;;5036923;28;20729;-61
2021/11/13 13:54:39;;;;;;;12.85;9.88;;;;;;;;;;5038007;28;20203;-61
2021/11/13 13:57:07;;;;;;;14.52;10.23;;;;;;;;;;5036809;28;20238;-62
2021/11/13 13:59:36;;;;;;;11.75;10.10;;;;;;;;;;5036937;28;20231;-61
2021/11/13 14:02:05;;;;;;;10.30;8.32;;;;;;;;;;5042226;28;20209;-62
2021/11/13 14:04:33;;;;;;;11.40;10.10;;;;;;;;;;5041807;28;20203;-62
2021/11/13 14:07:07;;;;;;;12.27;9.95;;;;;;;;;;5040696;28;20593;-61
2021/11/13 14:09:35;;;;;;;15.23;10.40;;;;;;;;;;5038933;28;20191;-61
2021/11/13 14:12:04;;;;;;;12.07;9.70;;;;;;;;;;5039378;28;20203;-62
2021/11/13 14:14:33;;;;;;;11.57;8.85;;;;;;;;;;5038012;28;20214;-62
2021/11/13 14:17:00;;;;;;;12.43;10.05;;;;;;;;;;5037889;28;20231;-61
2021/11/13 14:19:28;;;;;;;11.70;9.70;;;;;;;;;;5037584;28;20212;-62
2021/11/13 14:22:03;;;;;;;13.18;10.07;;;;;;;;;;5036518;28;20209;-62
2021/11/13 14:24:30;;;;;;;10.95;9.85;;;;;;;;;;5036130;28;20595;-61
2021/11/13 14:27:01;;;;;;;11.70;9.38;;;;;;;;;;5036570;28;20241;-61